Terminal Aerodrome Forecast
Issued by NWS

Home | Current Version | Previous Version | Text Only | Print | Product List | Glossary On
Versions: 1 2 3 4 5 6 7 8 9 10 11 12 13 14 15 16 17 18 19 20 21 22
000
FTUS41 KBGM 210800 AAA
TAFITH
TAF AMD
KITH 210813Z 2108/2206 09006KT P6SM -SHRA SCT035 OVC050
      TEMPO 2108/2112 5SM -SHRA BR OVC035
     FM211200 16004KT 6SM -SHRA OVC025
      TEMPO 2112/2114 4SM -SHRA BR OVC015
     FM212100 35006KT 4SM -SHRA SCT009 OVC015=

USA.gov is the U.S. government's official web portal to all federal, state and local government web resources and services.